Pagina principală
METAR-TAF:

METAR-TAF

Aeroporturi :

McKinley Park, Alaska, Statele Unite ale Americii

Latitudine: 63-44N, longitudine: 148-55W, elevație: 524 m

Observații meteo curente

Raportul a fost făcut în urmă cu 18 de minute, la 17:56 UTC
Vânt 3 kt de la Vest/Sud-vest
Temperatură 9°C
Umiditate 71%
Presiune 1010 hPa
Vizibilitate: 16.1 km
Nori fragmentați la o înălțime de 5000 picior
Total acoperit la o înălțime de 9000 picior

METAR: PAIN 281756Z AUTO 24003KT 10SM BKN050 OVC090 09/04 A2983 RMK AO2 SLP113 60000 T00940039 10094 20067 50001

Ora: 10:14 (18:14 UTC)


TAF: lipsă

Observații și prognoze meteo pentru peste 4.000 de aeroporturi (rapoarte METAR și TAF).

Stațiile disponibile sunt reprezentate pe hartă prin puncte galbene și roșii.

Țineți indicatorul mouse-ului pe punctul dorit pentru a vedea denumirea stației.

Apoi, faceți clic pentru a vedea observațiile și prognozele meteorologice.

Pentru a schimba harta: Pentru mărire, faceți clic pe butoanele verzi cu cruce neagră; pentru micșorare, pe butonul verde cu o liniuță; pentru hărți învecinate, pe săgețile verzi.


METAR-TAF: